createdAt,value
2023-09-25T00:02:02.006Z,100337.25
2023-09-25T00:04:30.053Z,100352.81
2023-09-25T00:06:56.692Z,100350.41
2023-09-25T00:09:24.381Z,100334.47
2023-09-25T00:11:50.913Z,100339.84
2023-09-25T00:14:17.399Z,100338.88
2023-09-25T00:16:43.892Z,100325.84
2023-09-25T00:19:10.617Z,100328.19
2023-09-25T00:21:37.331Z,100332.50
2023-09-25T00:24:04.098Z,100323.91
2023-09-25T00:26:30.929Z,100328.03
2023-09-25T00:28:57.479Z,100328.03
2023-09-25T00:31:24.006Z,100315.50
2023-09-25T00:33:51.563Z,100309.16
2023-09-25T00:36:19.537Z,100313.41
2023-09-25T00:38:46.044Z,100320.25
2023-09-25T00:41:12.635Z,100314.59
2023-09-25T00:43:39.196Z,100325.88
2023-09-25T00:46:05.702Z,100326.22
2023-09-25T00:48:32.445Z,100327.13
2023-09-25T00:51:01.189Z,100322.88
2023-09-25T00:53:29.693Z,100319.03
2023-09-25T00:55:56.852Z,100320.69
2023-09-25T00:58:24.750Z,100319.44
2023-09-25T01:00:51.694Z,100321.78
2023-09-25T01:03:19.565Z,100317.94
2023-09-25T01:05:46.890Z,100331.84
2023-09-25T01:08:13.995Z,100344.13
2023-09-25T01:10:42.051Z,100350.81
2023-09-25T01:13:11.108Z,100352.38
2023-09-25T01:15:38.337Z,100351.09
2023-09-25T01:18:05.595Z,100358.09
2023-09-25T01:20:32.348Z,100349.44
2023-09-25T01:22:58.793Z,100340.19
2023-09-25T01:25:25.447Z,100362.81
2023-09-25T01:27:52.434Z,100361.25
2023-09-25T01:30:19.495Z,100351.25
2023-09-25T01:32:47.547Z,100337.34
2023-09-25T01:35:16.035Z,100355.59
2023-09-25T01:37:42.983Z,100352.97
2023-09-25T01:40:13.464Z,100361.06
2023-09-25T01:42:41.080Z,100333.13
2023-09-25T01:45:09.992Z,100356.78
2023-09-25T01:47:36.872Z,100329.63
2023-09-25T01:50:05.006Z,100325.25
2023-09-25T01:52:31.585Z,100316.28
2023-09-25T01:54:58.444Z,100323.91
2023-09-25T01:57:24.989Z,100312.88
2023-09-25T01:59:51.561Z,100304.16
2023-09-25T02:02:18.061Z,100285.84
2023-09-25T02:04:44.798Z,100277.94
2023-09-25T02:07:12.337Z,100278.00
2023-09-25T02:09:39.004Z,100274.50
2023-09-25T02:12:06.225Z,100267.47
2023-09-25T02:14:32.777Z,100276.88
2023-09-25T02:16:59.759Z,100265.69
2023-09-25T02:19:29.530Z,100254.34
2023-09-25T02:21:56.013Z,100261.75
2023-09-25T02:24:22.953Z,100261.50
2023-09-25T02:26:49.618Z,100246.44
2023-09-25T02:29:16.130Z,100246.94
2023-09-25T02:31:42.644Z,100232.38
2023-09-25T02:34:15.449Z,100224.13
2023-09-25T02:36:42.426Z,100227.53
2023-09-25T02:39:11.048Z,100232.09
2023-09-25T02:41:37.710Z,100233.84
2023-09-25T02:44:04.273Z,100248.75
2023-09-25T02:46:30.833Z,100252.69
2023-09-25T02:48:57.606Z,100241.19
2023-09-25T02:51:24.370Z,100244.41
2023-09-25T02:53:52.096Z,100249.25
2023-09-25T02:56:18.824Z,100245.63
2023-09-25T02:58:46.403Z,100232.56
2023-09-25T03:01:13.231Z,100242.28
2023-09-25T03:03:40.468Z,100250.13
2023-09-25T03:06:06.987Z,100236.19
2023-09-25T03:08:33.500Z,100251.16
2023-09-25T03:10:59.952Z,100263.34
2023-09-25T03:13:26.444Z,100262.44
2023-09-25T03:15:53.003Z,100266.88
2023-09-25T03:18:19.658Z,100274.66
2023-09-25T03:20:46.167Z,100286.09
2023-09-25T03:23:12.722Z,100282.31
2023-09-25T03:25:42.307Z,100279.63
2023-09-25T03:28:08.800Z,100284.88
2023-09-25T03:30:35.395Z,100285.47
2023-09-25T03:33:01.947Z,100292.75
2023-09-25T03:35:28.538Z,100294.22
2023-09-25T03:37:55.820Z,100304.03
2023-09-25T03:40:22.396Z,100317.81
2023-09-25T03:42:48.927Z,100338.28
2023-09-25T03:45:15.526Z,100349.84
2023-09-25T03:47:43.174Z,100356.94
2023-09-25T03:50:10.195Z,100361.09
2023-09-25T03:52:36.819Z,100375.94
2023-09-25T03:55:03.528Z,100378.28
2023-09-25T03:57:30.099Z,100381.72
2023-09-25T03:59:56.657Z,100385.38
2023-09-25T04:02:23.294Z,100388.66
2023-09-25T04:04:52.086Z,100371.19
2023-09-25T04:07:19.577Z,100395.22
2023-09-25T04:09:49.331Z,100395.75
2023-09-25T04:12:15.941Z,100394.69
2023-09-25T04:14:42.876Z,100404.38
2023-09-25T04:17:09.382Z,100404.25
2023-09-25T04:19:36.061Z,100406.22
2023-09-25T04:22:08.165Z,100402.84
2023-09-25T04:24:38.548Z,100395.81
2023-09-25T04:27:05.513Z,100404.34
2023-09-25T04:29:32.480Z,100401.75
2023-09-25T04:31:59.358Z,100389.53
2023-09-25T04:34:25.912Z,100399.91
2023-09-25T04:36:54.193Z,100405.34
2023-09-25T04:39:21.501Z,100411.13
2023-09-25T04:41:48.995Z,100407.41
2023-09-25T04:44:15.628Z,100406.16
2023-09-25T04:46:42.290Z,100407.16
2023-09-25T04:49:09.378Z,100409.75
2023-09-25T04:51:36.006Z,100400.78
2023-09-25T04:54:02.658Z,100415.28
2023-09-25T04:56:29.152Z,100418.34
2023-09-25T04:58:56.337Z,100406.66
2023-09-25T05:01:22.872Z,100416.38
2023-09-25T05:03:49.573Z,100412.16
2023-09-25T05:06:17.026Z,100404.41
2023-09-25T05:08:44.752Z,100417.28
2023-09-25T05:11:12.247Z,100423.50
2023-09-25T05:13:38.760Z,100414.91
2023-09-25T05:16:05.540Z,100415.84
2023-09-25T05:18:32.471Z,100409.81
2023-09-25T05:20:59.476Z,100412.41
2023-09-25T05:23:26.723Z,100426.38
2023-09-25T05:25:57.812Z,100430.72
2023-09-25T05:28:24.300Z,100423.75
2023-09-25T05:30:51.104Z,100424.28
2023-09-25T05:33:17.750Z,100430.97
2023-09-25T05:35:44.286Z,100401.13
2023-09-25T05:38:10.871Z,100430.88
2023-09-25T05:40:37.371Z,100425.63
2023-09-25T05:43:04.107Z,100430.91
2023-09-25T05:45:30.747Z,100433.97
2023-09-25T05:47:57.302Z,100449.03
2023-09-25T05:50:23.927Z,100456.75
2023-09-25T05:52:50.434Z,100455.59
2023-09-25T05:55:17.023Z,100458.59
2023-09-25T05:57:43.628Z,100467.09
2023-09-25T06:00:14.206Z,100468.47
2023-09-25T06:02:42.052Z,100462.31
2023-09-25T06:05:09.913Z,100471.84
2023-09-25T06:07:36.616Z,100473.69
2023-09-25T06:10:06.357Z,100467.59
2023-09-25T06:12:32.994Z,100480.63
2023-09-25T06:14:59.759Z,100487.94
2023-09-25T06:17:29.112Z,100481.50
2023-09-25T06:19:55.921Z,100486.41
2023-09-25T06:22:25.260Z,100484.94
2023-09-25T06:24:52.046Z,100489.47
2023-09-25T06:27:18.609Z,100487.31
2023-09-25T06:29:45.117Z,100491.00
2023-09-25T06:32:12.620Z,100496.78
2023-09-25T06:34:40.507Z,100490.66
2023-09-25T06:37:07.496Z,100485.47
2023-09-25T06:39:34.804Z,100496.44
2023-09-25T06:42:01.361Z,100503.97
2023-09-25T06:44:27.907Z,100509.22
2023-09-25T06:46:54.468Z,100507.59
2023-09-25T06:49:21.334Z,100513.50
2023-09-25T06:51:49.011Z,100514.38
2023-09-25T06:54:15.630Z,100518.53
2023-09-25T06:56:42.225Z,100515.56
2023-09-25T06:59:08.696Z,100520.63
2023-09-25T07:01:35.343Z,100522.63
2023-09-25T07:04:02.146Z,100525.09
2023-09-25T07:06:28.751Z,100519.84
2023-09-25T07:08:55.245Z,100532.59
2023-09-25T07:11:21.815Z,100523.59
2023-09-25T07:13:49.941Z,100524.72
2023-09-25T07:16:16.958Z,100516.31
2023-09-25T07:18:45.316Z,100513.38
2023-09-25T07:23:38.530Z,100511.53
2023-09-25T07:26:09.755Z,100513.34
2023-09-25T07:28:37.621Z,100511.53
2023-09-25T07:31:06.441Z,100514.31
2023-09-25T07:33:34.121Z,100515.41
2023-09-25T07:36:03.752Z,100520.63
2023-09-25T07:38:32.732Z,100522.03
2023-09-25T07:41:01.366Z,100533.19
2023-09-25T07:43:56.936Z,100527.34
2023-09-25T07:46:20.662Z,100539.00
2023-09-25T07:48:48.494Z,100517.84
2023-09-25T07:51:15.604Z,100545.75
2023-09-25T07:53:46.152Z,100543.56
2023-09-25T07:56:13.032Z,100546.06
2023-09-25T07:58:41.348Z,100553.03
2023-09-25T08:01:10.174Z,100558.97
2023-09-25T08:03:39.447Z,100564.22
2023-09-25T08:06:07.298Z,100576.22
2023-09-25T08:08:35.621Z,100570.59
2023-09-25T08:11:02.683Z,100576.72
2023-09-25T08:13:29.485Z,100586.00
2023-09-25T08:15:56.270Z,100574.66
2023-09-25T08:18:23.067Z,100578.63
2023-09-25T08:20:49.671Z,100581.22
2023-09-25T08:23:16.282Z,100580.41
2023-09-25T08:25:42.795Z,100563.56
2023-09-25T08:28:09.336Z,100560.50
2023-09-25T08:30:36.032Z,100561.47
2023-09-25T08:33:02.653Z,100570.47
2023-09-25T08:35:29.463Z,100569.22
2023-09-25T08:37:55.985Z,100569.47
2023-09-25T08:40:22.722Z,100562.91
2023-09-25T08:43:01.765Z,100551.81
2023-09-25T08:45:35.897Z,100559.09
2023-09-25T08:48:02.480Z,100557.31
2023-09-25T08:50:29.147Z,100562.53
2023-09-25T08:52:57.751Z,100555.97
2023-09-25T08:55:26.127Z,100556.13
2023-09-25T08:57:53.177Z,100562.53
2023-09-25T09:00:20.788Z,100561.31
2023-09-25T09:02:48.226Z,100558.84
2023-09-25T09:05:14.900Z,100554.03
2023-09-25T09:08:01.901Z,100558.59
2023-09-25T09:10:37.429Z,100571.41
2023-09-25T09:13:13.983Z,100572.34
2023-09-25T09:15:41.709Z,100569.81
2023-09-25T09:18:25.755Z,100579.00
2023-09-25T09:20:54.867Z,100564.06
2023-09-25T09:23:21.436Z,100574.22
2023-09-25T09:25:49.114Z,100575.53
2023-09-25T09:28:16.206Z,100575.66
2023-09-25T09:30:42.948Z,100579.97
2023-09-25T09:33:10.387Z,100581.84
2023-09-25T09:35:36.960Z,100581.97
2023-09-25T09:38:06.704Z,100585.88
2023-09-25T09:40:36.765Z,100578.41
2023-09-25T09:43:04.457Z,100573.25
2023-09-25T09:45:31.625Z,100573.75
2023-09-25T09:47:59.956Z,100558.81
2023-09-25T09:50:29.922Z,100565.78
2023-09-25T09:52:57.823Z,100568.66
2023-09-25T09:55:25.406Z,100559.34
2023-09-25T09:57:52.149Z,100564.94
2023-09-25T10:00:19.122Z,100566.59
2023-09-25T10:02:48.368Z,100569.47
2023-09-25T10:05:16.368Z,100572.72
2023-09-25T10:08:11.126Z,100581.13
2023-09-25T10:10:41.756Z,100580.88
2023-09-25T10:13:13.857Z,100580.06
2023-09-25T10:15:40.590Z,100567.59
2023-09-25T10:18:07.837Z,100570.31
2023-09-25T10:20:42.302Z,100582.13
2023-09-25T10:23:12.455Z,100569.59
2023-09-25T10:25:49.458Z,100570.00
2023-09-25T10:28:18.084Z,100566.75
2023-09-25T10:30:44.644Z,100575.50
2023-09-25T10:33:11.533Z,100580.16
2023-09-25T10:35:53.289Z,100571.84
2023-09-25T10:38:31.965Z,100573.13
2023-09-25T10:41:08.699Z,100578.25
2023-09-25T10:43:37.017Z,100577.53
2023-09-25T10:46:04.836Z,100571.06
2023-09-25T10:48:33.327Z,100580.84
2023-09-25T10:50:59.954Z,100565.84
2023-09-25T10:53:28.179Z,100573.00
2023-09-25T10:55:55.241Z,100569.81
2023-09-25T10:58:22.454Z,100575.34
2023-09-25T11:00:52.601Z,100564.53
2023-09-25T11:03:21.105Z,100573.81
2023-09-25T11:05:48.339Z,100570.78
2023-09-25T11:08:19.547Z,100565.28
2023-09-25T11:10:47.449Z,100563.06
2023-09-25T11:13:14.260Z,100552.63
2023-09-25T11:15:42.653Z,100544.56
2023-09-25T11:18:11.068Z,100551.44
2023-09-25T11:20:42.490Z,100542.91
2023-09-25T11:25:49.042Z,100535.25
2023-09-25T11:28:24.437Z,100547.00
2023-09-25T11:30:52.121Z,100541.56
2023-09-25T11:33:22.402Z,100538.50
2023-09-25T11:35:53.238Z,100542.16
2023-09-25T11:38:23.229Z,100537.16
2023-09-25T11:40:56.707Z,100538.69
2023-09-25T11:43:26.708Z,100541.44
2023-09-25T11:46:01.160Z,100537.38
2023-09-25T11:48:27.868Z,100537.38
2023-09-25T11:50:54.589Z,100532.78
2023-09-25T11:53:21.703Z,100533.44
2023-09-25T11:55:50.410Z,100528.47
2023-09-25T11:58:17.422Z,100523.66
2023-09-25T12:00:44.742Z,100509.38
2023-09-25T12:03:15.034Z,100522.75
2023-09-25T12:05:42.877Z,100520.59
2023-09-25T12:08:09.507Z,100518.47
2023-09-25T12:10:39.946Z,100505.13
2023-09-25T12:13:08.534Z,100504.16
2023-09-25T12:15:38.428Z,100501.69
2023-09-25T12:18:05.869Z,100500.97
2023-09-25T12:20:32.560Z,100497.06
2023-09-25T12:22:59.174Z,100494.16
2023-09-25T12:25:26.180Z,100492.28
2023-09-25T12:27:54.063Z,100486.19
2023-09-25T12:30:21.248Z,100491.41
2023-09-25T12:32:49.302Z,100490.66
2023-09-25T12:35:16.985Z,100481.09
2023-09-25T12:37:44.884Z,100490.19
2023-09-25T12:40:12.763Z,100483.47
2023-09-25T12:42:54.079Z,100488.06
2023-09-25T12:45:22.915Z,100485.69
2023-09-25T12:47:50.118Z,100485.41
2023-09-25T12:50:16.828Z,100480.09
2023-09-25T12:52:43.430Z,100485.63
2023-09-25T12:55:10.353Z,100481.66
2023-09-25T12:57:37.238Z,100478.44
2023-09-25T13:00:05.965Z,100476.72
2023-09-25T13:02:33.069Z,100483.66
2023-09-25T13:04:59.791Z,100486.69
2023-09-25T13:07:26.393Z,100496.00
2023-09-25T13:09:53.136Z,100497.50
2023-09-25T13:12:19.742Z,100490.94
2023-09-25T13:14:46.182Z,100485.63
2023-09-25T13:17:13.035Z,100491.09
2023-09-25T13:19:43.132Z,100492.16
2023-09-25T13:22:28.916Z,100482.47
2023-09-25T13:24:58.923Z,100484.56
2023-09-25T13:27:25.478Z,100487.91
2023-09-25T13:29:52.572Z,100486.50
2023-09-25T13:32:19.303Z,100488.88
2023-09-25T13:34:46.156Z,100484.78
2023-09-25T13:37:12.875Z,100475.66
2023-09-25T13:39:42.305Z,100474.72
2023-09-25T13:42:09.130Z,100476.66
2023-09-25T13:44:36.706Z,100479.22
2023-09-25T13:47:03.319Z,100474.94
2023-09-25T13:49:30.286Z,100472.94
2023-09-25T13:51:58.138Z,100475.31
2023-09-25T13:54:24.793Z,100471.88
2023-09-25T13:56:51.349Z,100471.38
2023-09-25T13:59:18.540Z,100467.69
2023-09-25T14:01:48.174Z,100463.53
2023-09-25T14:04:15.444Z,100456.38
2023-09-25T14:06:43.137Z,100460.28
2023-09-25T14:09:10.508Z,100449.63
2023-09-25T14:11:37.370Z,100456.28
2023-09-25T14:14:05.506Z,100458.16
2023-09-25T14:16:32.329Z,100461.22
2023-09-25T14:18:58.984Z,100463.44
2023-09-25T14:21:25.541Z,100458.50
2023-09-25T14:23:52.261Z,100456.41
2023-09-25T14:26:18.837Z,100451.41
2023-09-25T14:28:46.182Z,100457.75
2023-09-25T14:31:13.121Z,100449.44
2023-09-25T14:33:40.519Z,100451.78
2023-09-25T14:36:10.580Z,100443.34
2023-09-25T14:38:37.050Z,100453.06
2023-09-25T14:41:03.648Z,100454.31
2023-09-25T14:43:30.254Z,100448.53
2023-09-25T14:45:56.818Z,100448.63
2023-09-25T14:48:23.598Z,100450.81
2023-09-25T14:50:50.233Z,100448.69
2023-09-25T14:53:16.715Z,100448.84
2023-09-25T14:55:56.159Z,100446.41
2023-09-25T14:58:24.105Z,100448.22
2023-09-25T15:00:59.726Z,100440.03
2023-09-25T15:03:28.015Z,100443.31
2023-09-25T15:05:55.499Z,100442.91
2023-09-25T15:08:26.968Z,100442.97
2023-09-25T15:10:54.728Z,100449.91
2023-09-25T15:13:21.987Z,100448.75
2023-09-25T15:15:49.851Z,100458.66
2023-09-25T15:18:17.270Z,100456.28
2023-09-25T15:20:43.972Z,100453.66
2023-09-25T15:23:11.422Z,100458.69
2023-09-25T15:25:37.972Z,100458.22
2023-09-25T15:28:05.040Z,100455.09
2023-09-25T15:30:31.696Z,100462.53
2023-09-25T15:32:58.373Z,100465.72
2023-09-25T15:35:25.012Z,100466.53
2023-09-25T15:37:51.558Z,100466.91
2023-09-25T15:40:20.173Z,100469.22
2023-09-25T15:42:47.103Z,100471.53
2023-09-25T15:45:14.863Z,100471.69
2023-09-25T15:47:41.384Z,100470.25
2023-09-25T15:50:08.743Z,100470.19
2023-09-25T15:52:35.269Z,100464.22
2023-09-25T15:55:02.291Z,100474.16
2023-09-25T15:57:29.149Z,100464.13
2023-09-25T15:59:55.728Z,100476.09
2023-09-25T16:02:22.489Z,100474.22
2023-09-25T16:04:49.292Z,100473.97
2023-09-25T16:07:15.961Z,100472.25
2023-09-25T16:09:42.629Z,100472.41
2023-09-25T16:14:35.909Z,100470.00
2023-09-25T16:17:02.429Z,100472.19
2023-09-25T16:19:28.968Z,100467.28
2023-09-25T16:21:55.516Z,100469.69
2023-09-25T16:24:22.054Z,100466.91
2023-09-25T16:26:48.588Z,100472.44
2023-09-25T16:29:15.042Z,100472.56
2023-09-25T16:31:41.722Z,100471.94
2023-09-25T16:34:08.564Z,100470.84
2023-09-25T16:36:35.138Z,100450.22
2023-09-25T16:39:01.714Z,100463.66
2023-09-25T16:41:30.911Z,100481.63
2023-09-25T16:43:57.353Z,100478.94
2023-09-25T16:46:23.958Z,100480.44
2023-09-25T16:48:50.662Z,100487.41
2023-09-25T16:51:17.175Z,100479.34
2023-09-25T16:53:43.719Z,100484.25
2023-09-25T16:56:10.328Z,100484.56
2023-09-25T16:58:38.446Z,100476.56
2023-09-25T17:01:07.634Z,100489.94
2023-09-25T17:03:34.654Z,100490.19
2023-09-25T17:06:02.438Z,100487.81
2023-09-25T17:08:30.148Z,100485.56
2023-09-25T17:10:57.141Z,100493.78
2023-09-25T17:13:25.484Z,100491.38
2023-09-25T17:15:52.091Z,100500.91
2023-09-25T17:18:19.978Z,100487.47
2023-09-25T17:20:46.648Z,100495.63
2023-09-25T17:23:13.262Z,100505.63
2023-09-25T17:25:39.753Z,100506.06
2023-09-25T17:28:07.271Z,100503.47
2023-09-25T17:30:35.685Z,100501.25
2023-09-25T17:33:06.510Z,100508.69
2023-09-25T17:35:33.479Z,100513.47
2023-09-25T17:38:03.577Z,100513.47
2023-09-25T17:40:30.237Z,100519.63
2023-09-25T17:42:56.845Z,100517.53
2023-09-25T17:45:23.501Z,100525.13
2023-09-25T17:47:50.438Z,100522.84
2023-09-25T17:50:17.301Z,100523.69
2023-09-25T17:52:48.452Z,100524.44
2023-09-25T17:55:15.746Z,100521.06
2023-09-25T17:57:43.567Z,100523.22
2023-09-25T18:00:10.600Z,100532.78
2023-09-25T18:02:37.145Z,100535.47
2023-09-25T18:05:04.821Z,100533.94
2023-09-25T18:07:31.533Z,100537.06
2023-09-25T18:09:58.089Z,100537.34
2023-09-25T18:12:24.636Z,100534.22
2023-09-25T18:14:51.115Z,100536.31
2023-09-25T18:17:17.574Z,100523.84
2023-09-25T18:19:44.090Z,100530.56
2023-09-25T18:22:13.239Z,100505.19
2023-09-25T18:24:41.346Z,100529.69
2023-09-25T18:27:08.092Z,100523.94
2023-09-25T18:29:36.761Z,100537.84
2023-09-25T18:32:05.483Z,100541.06
2023-09-25T18:34:32.030Z,100533.63
2023-09-25T18:37:01.731Z,100533.00
2023-09-25T18:39:29.497Z,100532.34
2023-09-25T18:41:56.057Z,100539.22
2023-09-25T18:44:23.197Z,100540.81
2023-09-25T18:46:50.952Z,100538.31
2023-09-25T18:49:17.864Z,100536.41
2023-09-25T18:51:44.499Z,100535.78
2023-09-25T18:54:11.093Z,100551.78
2023-09-25T18:56:37.667Z,100546.38
2023-09-25T18:59:06.161Z,100544.41
2023-09-25T19:01:34.311Z,100559.63
2023-09-25T19:04:00.977Z,100553.22
2023-09-25T19:06:27.695Z,100556.47
2023-09-25T19:08:54.568Z,100558.78
2023-09-25T19:11:21.226Z,100543.44
2023-09-25T19:13:48.263Z,100554.56
2023-09-25T19:16:15.147Z,100554.81
2023-09-25T19:18:42.273Z,100552.81
2023-09-25T19:21:09.068Z,100556.75
2023-09-25T19:23:47.761Z,100558.50
2023-09-25T19:26:14.264Z,100561.56
2023-09-25T19:28:40.733Z,100561.72
2023-09-25T19:31:16.370Z,100561.91
2023-09-25T19:34:02.354Z,100559.63
2023-09-25T19:36:29.237Z,100554.88
2023-09-25T19:38:55.815Z,100562.13
2023-09-25T19:41:22.390Z,100560.81
2023-09-25T19:43:49.950Z,100556.09
2023-09-25T19:46:16.941Z,100559.78
2023-09-25T19:48:43.489Z,100557.63
2023-09-25T19:51:11.488Z,100564.13
2023-09-25T19:53:39.219Z,100560.03
2023-09-25T19:56:06.123Z,100561.84
2023-09-25T19:58:32.618Z,100562.94
2023-09-25T20:01:12.854Z,100569.72
2023-09-25T20:03:39.660Z,100562.91
2023-09-25T20:06:06.915Z,100568.53
2023-09-25T20:08:33.738Z,100568.69
2023-09-25T20:11:00.766Z,100561.41
2023-09-25T20:13:27.428Z,100564.13
2023-09-25T20:15:54.730Z,100566.66
2023-09-25T20:18:22.137Z,100563.47
2023-09-25T20:20:56.836Z,100565.56
2023-09-25T20:23:24.165Z,100563.81
2023-09-25T20:25:51.456Z,100556.19
2023-09-25T20:28:18.327Z,100558.44
2023-09-25T20:30:45.641Z,100564.75
2023-09-25T20:33:12.337Z,100557.03
2023-09-25T20:35:38.833Z,100567.09
2023-09-25T20:38:05.291Z,100567.38
2023-09-25T20:40:31.822Z,100562.38
2023-09-25T20:42:58.623Z,100557.97
2023-09-25T20:45:26.414Z,100551.13
2023-09-25T20:47:54.922Z,100563.41
2023-09-25T20:50:27.884Z,100566.97
2023-09-25T20:52:55.859Z,100558.59
2023-09-25T20:55:23.264Z,100557.31
2023-09-25T20:57:49.996Z,100564.84
2023-09-25T21:00:16.978Z,100563.84
2023-09-25T21:02:43.595Z,100562.91
2023-09-25T21:05:10.723Z,100566.41
2023-09-25T21:07:37.803Z,100562.94
2023-09-25T21:10:04.923Z,100561.72
2023-09-25T21:12:31.559Z,100561.44
2023-09-25T21:14:58.162Z,100566.72
2023-09-25T21:17:24.764Z,100564.50
2023-09-25T21:19:51.376Z,100570.59
2023-09-25T21:22:17.870Z,100564.84
2023-09-25T21:24:44.452Z,100566.50
2023-09-25T21:27:11.110Z,100571.81
2023-09-25T21:29:38.069Z,100564.50
2023-09-25T21:32:04.851Z,100565.63
2023-09-25T21:34:32.287Z,100575.69
2023-09-25T21:36:58.952Z,100573.00
2023-09-25T21:39:25.574Z,100574.75
2023-09-25T21:41:52.069Z,100565.63
2023-09-25T21:44:18.637Z,100564.88
2023-09-25T21:46:45.207Z,100567.50
2023-09-25T21:49:11.906Z,100570.94
2023-09-25T21:51:38.519Z,100557.81
2023-09-25T21:54:06.349Z,100558.91
2023-09-25T21:56:33.054Z,100565.50
2023-09-25T21:58:59.585Z,100567.34
2023-09-25T22:01:27.700Z,100560.91
2023-09-25T22:03:54.733Z,100564.28
2023-09-25T22:06:21.714Z,100564.91
2023-09-25T22:08:48.196Z,100559.50
2023-09-25T22:11:14.674Z,100561.44
2023-09-25T22:13:41.266Z,100557.31
2023-09-25T22:16:09.751Z,100556.44
2023-09-25T22:18:40.441Z,100559.84
2023-09-25T22:21:08.442Z,100559.63
2023-09-25T22:23:40.186Z,100566.81
2023-09-25T22:26:08.504Z,100558.66
2023-09-25T22:28:39.297Z,100560.34
2023-09-25T22:31:17.368Z,100558.00
2023-09-25T22:33:45.638Z,100557.28
2023-09-25T22:36:12.341Z,100555.81
2023-09-25T22:38:38.970Z,100555.16
2023-09-25T22:41:05.917Z,100553.56
2023-09-25T22:43:33.412Z,100548.81
2023-09-25T22:46:01.239Z,100548.94
2023-09-25T22:48:28.251Z,100544.78
2023-09-25T22:50:54.790Z,100546.47
2023-09-25T22:53:21.388Z,100554.16
2023-09-25T22:55:47.857Z,100550.84
2023-09-25T22:58:14.441Z,100551.91
2023-09-25T23:00:41.068Z,100553.97
2023-09-25T23:03:08.617Z,100550.44
2023-09-25T23:05:35.318Z,100547.50
2023-09-25T23:08:01.793Z,100548.00
2023-09-25T23:10:28.323Z,100542.78
2023-09-25T23:12:56.093Z,100542.50
2023-09-25T23:15:22.908Z,100542.63
2023-09-25T23:17:49.560Z,100545.09
2023-09-25T23:20:24.223Z,100547.03
2023-09-25T23:22:52.904Z,100538.81
2023-09-25T23:25:20.987Z,100543.41
2023-09-25T23:27:49.569Z,100538.84
2023-09-25T23:30:17.135Z,100545.06
2023-09-25T23:32:46.320Z,100535.47
2023-09-25T23:35:14.346Z,100539.28
2023-09-25T23:37:42.348Z,100538.66
2023-09-25T23:40:22.198Z,100526.03
2023-09-25T23:42:50.066Z,100540.13
2023-09-25T23:45:18.188Z,100536.63
2023-09-25T23:47:46.670Z,100532.88
2023-09-25T23:50:14.950Z,100537.91
2023-09-25T23:52:42.221Z,100530.28
2023-09-25T23:55:10.354Z,100530.13
2023-09-25T23:57:39.977Z,100528.41
